sensor_id;sensor_type;location;lat;lon;timestamp;P1;durP1;ratioP1;P2;durP2;ratioP2
36385;SDS011;24125;47.482;8.770;2022-12-07T00:00:25;27.13;;;16.42;;
36385;SDS011;24125;47.482;8.770;2022-12-07T00:02:58;29.48;;;17.00;;
36385;SDS011;24125;47.482;8.770;2022-12-07T00:05:31;26.70;;;15.85;;
36385;SDS011;24125;47.482;8.770;2022-12-07T00:08:04;30.25;;;17.38;;
36385;SDS011;24125;47.482;8.770;2022-12-07T00:10:37;28.27;;;17.17;;
36385;SDS011;24125;47.482;8.770;2022-12-07T00:13:10;26.13;;;16.23;;
36385;SDS011;24125;47.482;8.770;2022-12-07T00:15:45;29.38;;;17.30;;
36385;SDS011;24125;47.482;8.770;2022-12-07T00:18:18;25.77;;;15.88;;
36385;SDS011;24125;47.482;8.770;2022-12-07T00:20:51;27.73;;;16.73;;
36385;SDS011;24125;47.482;8.770;2022-12-07T00:23:24;27.58;;;16.35;;
36385;SDS011;24125;47.482;8.770;2022-12-07T00:26:02;28.77;;;17.13;;
36385;SDS011;24125;47.482;8.770;2022-12-07T00:28:36;27.88;;;16.60;;
36385;SDS011;24125;47.482;8.770;2022-12-07T00:31:12;27.98;;;16.85;;
36385;SDS011;24125;47.482;8.770;2022-12-07T00:33:46;28.92;;;17.75;;
36385;SDS011;24125;47.482;8.770;2022-12-07T00:36:20;29.48;;;17.73;;
36385;SDS011;24125;47.482;8.770;2022-12-07T00:39:00;25.67;;;16.85;;
36385;SDS011;24125;47.482;8.770;2022-12-07T00:41:33;29.70;;;18.27;;
36385;SDS011;24125;47.482;8.770;2022-12-07T00:44:06;28.65;;;17.88;;
36385;SDS011;24125;47.482;8.770;2022-12-07T00:46:41;31.90;;;17.75;;
36385;SDS011;24125;47.482;8.770;2022-12-07T00:49:16;28.63;;;17.52;;
36385;SDS011;24125;47.482;8.770;2022-12-07T00:51:49;26.60;;;16.20;;
36385;SDS011;24125;47.482;8.770;2022-12-07T00:54:22;28.23;;;17.48;;
36385;SDS011;24125;47.482;8.770;2022-12-07T00:56:55;27.30;;;17.70;;
36385;SDS011;24125;47.482;8.770;2022-12-07T00:59:28;30.73;;;18.83;;
36385;SDS011;24125;47.482;8.770;2022-12-07T01:02:02;29.13;;;18.08;;
36385;SDS011;24125;47.482;8.770;2022-12-07T01:04:35;28.65;;;17.77;;
36385;SDS011;24125;47.482;8.770;2022-12-07T01:07:08;28.50;;;17.60;;
36385;SDS011;24125;47.482;8.770;2022-12-07T01:09:41;28.67;;;18.05;;
36385;SDS011;24125;47.482;8.770;2022-12-07T01:12:14;29.33;;;17.52;;
36385;SDS011;24125;47.482;8.770;2022-12-07T01:14:47;28.70;;;17.85;;
36385;SDS011;24125;47.482;8.770;2022-12-07T01:17:21;28.63;;;16.92;;
36385;SDS011;24125;47.482;8.770;2022-12-07T01:19:54;26.67;;;16.33;;
36385;SDS011;24125;47.482;8.770;2022-12-07T01:22:28;27.58;;;16.65;;
36385;SDS011;24125;47.482;8.770;2022-12-07T01:25:01;29.00;;;17.45;;
36385;SDS011;24125;47.482;8.770;2022-12-07T01:27:34;30.73;;;18.17;;
36385;SDS011;24125;47.482;8.770;2022-12-07T01:30:09;29.13;;;18.08;;
36385;SDS011;24125;47.482;8.770;2022-12-07T01:32:45;28.88;;;17.63;;
36385;SDS011;24125;47.482;8.770;2022-12-07T01:35:18;28.48;;;16.95;;
36385;SDS011;24125;47.482;8.770;2022-12-07T01:37:51;28.65;;;16.92;;
36385;SDS011;24125;47.482;8.770;2022-12-07T01:40:24;27.73;;;17.00;;
36385;SDS011;24125;47.482;8.770;2022-12-07T01:42:57;27.73;;;16.55;;
36385;SDS011;24125;47.482;8.770;2022-12-07T01:48:14;27.83;;;16.50;;
36385;SDS011;24125;47.482;8.770;2022-12-07T01:50:51;27.95;;;16.40;;
36385;SDS011;24125;47.482;8.770;2022-12-07T01:53:27;28.52;;;16.30;;
36385;SDS011;24125;47.482;8.770;2022-12-07T01:56:04;29.52;;;16.42;;
36385;SDS011;24125;47.482;8.770;2022-12-07T01:58:40;30.88;;;17.65;;
36385;SDS011;24125;47.482;8.770;2022-12-07T02:01:13;31.27;;;18.10;;
36385;SDS011;24125;47.482;8.770;2022-12-07T02:03:48;29.52;;;16.70;;
36385;SDS011;24125;47.482;8.770;2022-12-07T02:06:22;29.95;;;17.80;;
36385;SDS011;24125;47.482;8.770;2022-12-07T02:08:57;30.88;;;17.83;;
36385;SDS011;24125;47.482;8.770;2022-12-07T02:11:30;28.02;;;15.98;;
36385;SDS011;24125;47.482;8.770;2022-12-07T02:14:04;29.52;;;17.77;;
36385;SDS011;24125;47.482;8.770;2022-12-07T02:16:39;28.55;;;17.35;;
36385;SDS011;24125;47.482;8.770;2022-12-07T02:19:37;30.13;;;17.27;;
36385;SDS011;24125;47.482;8.770;2022-12-07T02:22:32;29.00;;;17.25;;
36385;SDS011;24125;47.482;8.770;2022-12-07T02:25:27;28.60;;;17.13;;
36385;SDS011;24125;47.482;8.770;2022-12-07T02:28:16;28.42;;;16.35;;
36385;SDS011;24125;47.482;8.770;2022-12-07T02:31:01;30.20;;;16.92;;
36385;SDS011;24125;47.482;8.770;2022-12-07T02:33:40;26.75;;;16.42;;
36385;SDS011;24125;47.482;8.770;2022-12-07T02:36:17;29.73;;;16.95;;
36385;SDS011;24125;47.482;8.770;2022-12-07T02:38:58;26.08;;;15.32;;
36385;SDS011;24125;47.482;8.770;2022-12-07T02:41:35;27.85;;;16.27;;
36385;SDS011;24125;47.482;8.770;2022-12-07T02:44:10;24.10;;;15.25;;
36385;SDS011;24125;47.482;8.770;2022-12-07T02:46:49;26.98;;;16.17;;
36385;SDS011;24125;47.482;8.770;2022-12-07T02:49:26;27.00;;;16.02;;
36385;SDS011;24125;47.482;8.770;2022-12-07T02:52:01;25.20;;;14.68;;
36385;SDS011;24125;47.482;8.770;2022-12-07T02:54:37;25.60;;;15.55;;
36385;SDS011;24125;47.482;8.770;2022-12-07T02:57:14;24.00;;;15.15;;
36385;SDS011;24125;47.482;8.770;2022-12-07T03:00:00;25.83;;;15.63;;
36385;SDS011;24125;47.482;8.770;2022-12-07T03:02:41;23.77;;;14.50;;
36385;SDS011;24125;47.482;8.770;2022-12-07T03:05:31;25.58;;;15.80;;
36385;SDS011;24125;47.482;8.770;2022-12-07T03:08:15;23.70;;;15.57;;
36385;SDS011;24125;47.482;8.770;2022-12-07T03:10:58;28.60;;;15.68;;
36385;SDS011;24125;47.482;8.770;2022-12-07T03:13:34;23.88;;;14.80;;
36385;SDS011;24125;47.482;8.770;2022-12-07T03:16:14;26.38;;;15.93;;
36385;SDS011;24125;47.482;8.770;2022-12-07T03:18:51;24.65;;;15.32;;
36385;SDS011;24125;47.482;8.770;2022-12-07T03:21:30;25.33;;;16.23;;
36385;SDS011;24125;47.482;8.770;2022-12-07T03:24:08;24.85;;;15.57;;
36385;SDS011;24125;47.482;8.770;2022-12-07T03:26:46;24.17;;;14.75;;
36385;SDS011;24125;47.482;8.770;2022-12-07T03:29:22;27.83;;;16.10;;
36385;SDS011;24125;47.482;8.770;2022-12-07T03:31:58;25.13;;;14.95;;
36385;SDS011;24125;47.482;8.770;2022-12-07T03:34:38;25.08;;;15.70;;
36385;SDS011;24125;47.482;8.770;2022-12-07T03:37:18;24.95;;;15.40;;
36385;SDS011;24125;47.482;8.770;2022-12-07T03:40:01;26.60;;;15.45;;
36385;SDS011;24125;47.482;8.770;2022-12-07T03:42:38;25.95;;;14.95;;
36385;SDS011;24125;47.482;8.770;2022-12-07T03:45:11;27.00;;;16.35;;
36385;SDS011;24125;47.482;8.770;2022-12-07T03:47:46;24.23;;;15.52;;
36385;SDS011;24125;47.482;8.770;2022-12-07T03:50:28;26.67;;;15.43;;
36385;SDS011;24125;47.482;8.770;2022-12-07T03:53:08;25.30;;;15.23;;
36385;SDS011;24125;47.482;8.770;2022-12-07T03:55:46;24.23;;;14.95;;
36385;SDS011;24125;47.482;8.770;2022-12-07T03:58:21;25.98;;;15.63;;
36385;SDS011;24125;47.482;8.770;2022-12-07T04:00:55;24.00;;;15.02;;
36385;SDS011;24125;47.482;8.770;2022-12-07T04:03:28;25.23;;;15.35;;
36385;SDS011;24125;47.482;8.770;2022-12-07T04:06:03;24.67;;;15.20;;
36385;SDS011;24125;47.482;8.770;2022-12-07T04:08:36;24.08;;;14.80;;
36385;SDS011;24125;47.482;8.770;2022-12-07T04:11:09;24.27;;;14.75;;
36385;SDS011;24125;47.482;8.770;2022-12-07T04:13:42;23.77;;;15.13;;
36385;SDS011;24125;47.482;8.770;2022-12-07T04:16:33;26.30;;;15.15;;
36385;SDS011;24125;47.482;8.770;2022-12-07T04:19:14;25.88;;;14.43;;
36385;SDS011;24125;47.482;8.770;2022-12-07T04:21:49;25.10;;;15.13;;
36385;SDS011;24125;47.482;8.770;2022-12-07T04:24:23;25.10;;;15.25;;
36385;SDS011;24125;47.482;8.770;2022-12-07T04:26:57;24.00;;;14.85;;
36385;SDS011;24125;47.482;8.770;2022-12-07T04:29:30;25.10;;;14.70;;
36385;SDS011;24125;47.482;8.770;2022-12-07T04:32:03;27.30;;;15.82;;
36385;SDS011;24125;47.482;8.770;2022-12-07T04:34:36;26.98;;;15.50;;
36385;SDS011;24125;47.482;8.770;2022-12-07T04:37:10;26.70;;;16.27;;
36385;SDS011;24125;47.482;8.770;2022-12-07T04:39:44;29.20;;;15.57;;
36385;SDS011;24125;47.482;8.770;2022-12-07T04:42:17;26.83;;;16.40;;
36385;SDS011;24125;47.482;8.770;2022-12-07T04:44:50;27.55;;;15.10;;
36385;SDS011;24125;47.482;8.770;2022-12-07T04:47:23;27.20;;;15.93;;
36385;SDS011;24125;47.482;8.770;2022-12-07T04:49:56;27.73;;;17.23;;
36385;SDS011;24125;47.482;8.770;2022-12-07T04:52:30;25.38;;;15.25;;
36385;SDS011;24125;47.482;8.770;2022-12-07T04:55:03;23.38;;;14.85;;
36385;SDS011;24125;47.482;8.770;2022-12-07T04:57:37;26.15;;;16.30;;
36385;SDS011;24125;47.482;8.770;2022-12-07T05:00:10;26.40;;;15.52;;
36385;SDS011;24125;47.482;8.770;2022-12-07T05:02:46;24.38;;;15.18;;
36385;SDS011;24125;47.482;8.770;2022-12-07T05:05:19;23.88;;;14.57;;
36385;SDS011;24125;47.482;8.770;2022-12-07T05:07:53;21.35;;;14.75;;
36385;SDS011;24125;47.482;8.770;2022-12-07T05:10:27;26.75;;;16.35;;
36385;SDS011;24125;47.482;8.770;2022-12-07T05:13:00;25.15;;;15.40;;
36385;SDS011;24125;47.482;8.770;2022-12-07T05:15:33;26.13;;;16.00;;
36385;SDS011;24125;47.482;8.770;2022-12-07T05:18:06;24.52;;;15.68;;
36385;SDS011;24125;47.482;8.770;2022-12-07T05:20:39;30.27;;;15.98;;
36385;SDS011;24125;47.482;8.770;2022-12-07T05:23:14;26.83;;;15.85;;
36385;SDS011;24125;47.482;8.770;2022-12-07T05:25:47;24.63;;;14.35;;
36385;SDS011;24125;47.482;8.770;2022-12-07T05:28:20;23.98;;;14.90;;
36385;SDS011;24125;47.482;8.770;2022-12-07T05:30:53;26.33;;;15.88;;
36385;SDS011;24125;47.482;8.770;2022-12-07T05:33:30;23.25;;;14.60;;
36385;SDS011;24125;47.482;8.770;2022-12-07T05:36:03;25.55;;;15.20;;
36385;SDS011;24125;47.482;8.770;2022-12-07T05:38:40;24.85;;;15.57;;
36385;SDS011;24125;47.482;8.770;2022-12-07T05:41:14;24.67;;;15.45;;
36385;SDS011;24125;47.482;8.770;2022-12-07T05:44:06;24.98;;;15.27;;
36385;SDS011;24125;47.482;8.770;2022-12-07T05:46:40;25.45;;;14.80;;
36385;SDS011;24125;47.482;8.770;2022-12-07T05:49:13;28.65;;;16.58;;
36385;SDS011;24125;47.482;8.770;2022-12-07T05:51:46;28.05;;;16.25;;
36385;SDS011;24125;47.482;8.770;2022-12-07T05:54:21;29.02;;;15.38;;
36385;SDS011;24125;47.482;8.770;2022-12-07T05:56:54;25.00;;;15.38;;
36385;SDS011;24125;47.482;8.770;2022-12-07T05:59:28;25.25;;;14.50;;
36385;SDS011;24125;47.482;8.770;2022-12-07T06:02:03;27.95;;;16.35;;
36385;SDS011;24125;47.482;8.770;2022-12-07T06:04:39;29.13;;;15.90;;
36385;SDS011;24125;47.482;8.770;2022-12-07T06:07:14;25.33;;;15.82;;
36385;SDS011;24125;47.482;8.770;2022-12-07T06:09:50;27.67;;;16.00;;
36385;SDS011;24125;47.482;8.770;2022-12-07T06:12:23;28.92;;;15.60;;
36385;SDS011;24125;47.482;8.770;2022-12-07T06:15:09;27.33;;;16.05;;
36385;SDS011;24125;47.482;8.770;2022-12-07T06:17:44;30.58;;;16.30;;
36385;SDS011;24125;47.482;8.770;2022-12-07T06:20:17;28.77;;;16.95;;
36385;SDS011;24125;47.482;8.770;2022-12-07T06:22:50;30.23;;;16.55;;
36385;SDS011;24125;47.482;8.770;2022-12-07T06:25:24;29.50;;;17.00;;
36385;SDS011;24125;47.482;8.770;2022-12-07T06:27:57;29.05;;;17.33;;
36385;SDS011;24125;47.482;8.770;2022-12-07T06:30:31;28.70;;;17.48;;
36385;SDS011;24125;47.482;8.770;2022-12-07T06:33:03;29.13;;;17.15;;
36385;SDS011;24125;47.482;8.770;2022-12-07T06:35:37;31.77;;;16.42;;
36385;SDS011;24125;47.482;8.770;2022-12-07T06:38:10;31.13;;;17.10;;
36385;SDS011;24125;47.482;8.770;2022-12-07T06:40:44;32.20;;;17.90;;
36385;SDS011;24125;47.482;8.770;2022-12-07T06:43:17;34.20;;;18.60;;
36385;SDS011;24125;47.482;8.770;2022-12-07T06:45:50;34.72;;;18.05;;
36385;SDS011;24125;47.482;8.770;2022-12-07T06:48:24;32.75;;;18.50;;
36385;SDS011;24125;47.482;8.770;2022-12-07T06:50:56;34.33;;;17.60;;
36385;SDS011;24125;47.482;8.770;2022-12-07T06:53:29;38.63;;;18.35;;
36385;SDS011;24125;47.482;8.770;2022-12-07T06:56:04;31.27;;;17.50;;
36385;SDS011;24125;47.482;8.770;2022-12-07T06:58:38;30.52;;;17.17;;
36385;SDS011;24125;47.482;8.770;2022-12-07T07:01:12;30.27;;;17.50;;
36385;SDS011;24125;47.482;8.770;2022-12-07T07:03:47;34.88;;;17.98;;
36385;SDS011;24125;47.482;8.770;2022-12-07T07:06:19;34.17;;;17.58;;
36385;SDS011;24125;47.482;8.770;2022-12-07T07:08:53;35.25;;;18.90;;
36385;SDS011;24125;47.482;8.770;2022-12-07T07:11:27;31.75;;;18.13;;
36385;SDS011;24125;47.482;8.770;2022-12-07T07:14:00;31.98;;;17.23;;
36385;SDS011;24125;47.482;8.770;2022-12-07T07:16:33;32.50;;;18.25;;
36385;SDS011;24125;47.482;8.770;2022-12-07T07:19:06;32.80;;;18.05;;
36385;SDS011;24125;47.482;8.770;2022-12-07T07:21:39;33.17;;;17.63;;
36385;SDS011;24125;47.482;8.770;2022-12-07T07:24:13;33.63;;;18.17;;
36385;SDS011;24125;47.482;8.770;2022-12-07T07:26:47;32.70;;;18.52;;
36385;SDS011;24125;47.482;8.770;2022-12-07T07:29:20;35.45;;;19.30;;
36385;SDS011;24125;47.482;8.770;2022-12-07T07:31:53;30.45;;;17.80;;
36385;SDS011;24125;47.482;8.770;2022-12-07T07:34:29;30.95;;;17.67;;
36385;SDS011;24125;47.482;8.770;2022-12-07T07:37:02;33.88;;;18.65;;
36385;SDS011;24125;47.482;8.770;2022-12-07T07:39:35;31.60;;;18.00;;
36385;SDS011;24125;47.482;8.770;2022-12-07T07:42:10;36.33;;;19.25;;
36385;SDS011;24125;47.482;8.770;2022-12-07T07:44:43;31.35;;;17.42;;
36385;SDS011;24125;47.482;8.770;2022-12-07T07:47:16;34.10;;;17.30;;
36385;SDS011;24125;47.482;8.770;2022-12-07T07:49:49;33.03;;;17.83;;
36385;SDS011;24125;47.482;8.770;2022-12-07T07:52:23;34.80;;;17.90;;
36385;SDS011;24125;47.482;8.770;2022-12-07T07:54:56;29.45;;;17.17;;
36385;SDS011;24125;47.482;8.770;2022-12-07T07:57:30;31.17;;;17.40;;
36385;SDS011;24125;47.482;8.770;2022-12-07T08:00:03;30.80;;;16.98;;
36385;SDS011;24125;47.482;8.770;2022-12-07T08:02:38;29.83;;;16.70;;
36385;SDS011;24125;47.482;8.770;2022-12-07T08:05:11;34.72;;;17.35;;
36385;SDS011;24125;47.482;8.770;2022-12-07T08:07:45;30.70;;;17.63;;
36385;SDS011;24125;47.482;8.770;2022-12-07T08:10:18;30.25;;;17.17;;
36385;SDS011;24125;47.482;8.770;2022-12-07T08:12:53;32.17;;;17.48;;
36385;SDS011;24125;47.482;8.770;2022-12-07T08:15:45;26.75;;;15.18;;
36385;SDS011;24125;47.482;8.770;2022-12-07T08:18:20;31.60;;;18.10;;
36385;SDS011;24125;47.482;8.770;2022-12-07T08:20:58;31.30;;;17.25;;
36385;SDS011;24125;47.482;8.770;2022-12-07T08:23:31;31.95;;;16.98;;
36385;SDS011;24125;47.482;8.770;2022-12-07T08:26:10;28.48;;;16.00;;
36385;SDS011;24125;47.482;8.770;2022-12-07T08:28:46;29.08;;;16.92;;
36385;SDS011;24125;47.482;8.770;2022-12-07T08:31:19;29.08;;;17.17;;
36385;SDS011;24125;47.482;8.770;2022-12-07T08:33:52;30.50;;;17.52;;
36385;SDS011;24125;47.482;8.770;2022-12-07T08:36:26;30.80;;;16.90;;
36385;SDS011;24125;47.482;8.770;2022-12-07T08:38:59;29.92;;;16.77;;
36385;SDS011;24125;47.482;8.770;2022-12-07T08:41:52;30.35;;;16.13;;
36385;SDS011;24125;47.482;8.770;2022-12-07T08:44:26;28.42;;;16.38;;
36385;SDS011;24125;47.482;8.770;2022-12-07T08:47:00;29.60;;;16.30;;
36385;SDS011;24125;47.482;8.770;2022-12-07T08:49:38;29.08;;;16.92;;
36385;SDS011;24125;47.482;8.770;2022-12-07T08:52:14;28.48;;;16.48;;
36385;SDS011;24125;47.482;8.770;2022-12-07T08:54:48;30.05;;;17.05;;
36385;SDS011;24125;47.482;8.770;2022-12-07T08:57:21;28.63;;;16.30;;
36385;SDS011;24125;47.482;8.770;2022-12-07T08:59:56;32.92;;;17.17;;
36385;SDS011;24125;47.482;8.770;2022-12-07T09:02:31;33.17;;;16.83;;
36385;SDS011;24125;47.482;8.770;2022-12-07T09:05:05;29.58;;;16.98;;
36385;SDS011;24125;47.482;8.770;2022-12-07T09:07:47;30.65;;;16.52;;
36385;SDS011;24125;47.482;8.770;2022-12-07T09:10:24;33.42;;;16.77;;
36385;SDS011;24125;47.482;8.770;2022-12-07T09:12:58;33.17;;;17.33;;
36385;SDS011;24125;47.482;8.770;2022-12-07T09:15:33;34.05;;;17.63;;
36385;SDS011;24125;47.482;8.770;2022-12-07T09:18:07;30.33;;;17.23;;
36385;SDS011;24125;47.482;8.770;2022-12-07T09:20:40;31.95;;;17.55;;
36385;SDS011;24125;47.482;8.770;2022-12-07T09:23:13;31.45;;;17.58;;
36385;SDS011;24125;47.482;8.770;2022-12-07T09:25:46;30.70;;;17.15;;
36385;SDS011;24125;47.482;8.770;2022-12-07T09:28:20;30.75;;;17.08;;
36385;SDS011;24125;47.482;8.770;2022-12-07T09:30:58;33.72;;;18.27;;
36385;SDS011;24125;47.482;8.770;2022-12-07T09:33:54;32.22;;;17.45;;
36385;SDS011;24125;47.482;8.770;2022-12-07T09:36:28;30.83;;;16.77;;
36385;SDS011;24125;47.482;8.770;2022-12-07T09:39:01;31.92;;;17.58;;
36385;SDS011;24125;47.482;8.770;2022-12-07T09:41:37;28.08;;;17.63;;
36385;SDS011;24125;47.482;8.770;2022-12-07T09:44:14;28.25;;;16.00;;
36385;SDS011;24125;47.482;8.770;2022-12-07T09:46:54;29.67;;;17.35;;
36385;SDS011;24125;47.482;8.770;2022-12-07T09:49:35;32.70;;;17.63;;
36385;SDS011;24125;47.482;8.770;2022-12-07T09:52:16;27.65;;;16.63;;
36385;SDS011;24125;47.482;8.770;2022-12-07T09:54:53;29.50;;;16.80;;
36385;SDS011;24125;47.482;8.770;2022-12-07T09:57:27;30.17;;;17.92;;
36385;SDS011;24125;47.482;8.770;2022-12-07T10:00:03;28.40;;;17.10;;
36385;SDS011;24125;47.482;8.770;2022-12-07T10:02:46;28.00;;;16.65;;
36385;SDS011;24125;47.482;8.770;2022-12-07T10:05:20;31.20;;;17.58;;
36385;SDS011;24125;47.482;8.770;2022-12-07T10:07:59;29.08;;;16.77;;
36385;SDS011;24125;47.482;8.770;2022-12-07T10:10:33;29.00;;;16.60;;
36385;SDS011;24125;47.482;8.770;2022-12-07T10:13:10;33.58;;;17.75;;
36385;SDS011;24125;47.482;8.770;2022-12-07T10:15:46;29.20;;;17.52;;
36385;SDS011;24125;47.482;8.770;2022-12-07T10:18:28;27.85;;;17.17;;
36385;SDS011;24125;47.482;8.770;2022-12-07T10:21:04;27.20;;;15.60;;
36385;SDS011;24125;47.482;8.770;2022-12-07T10:23:58;27.35;;;16.23;;
36385;SDS011;24125;47.482;8.770;2022-12-07T10:26:34;26.63;;;16.02;;
36385;SDS011;24125;47.482;8.770;2022-12-07T10:29:14;25.75;;;15.60;;
36385;SDS011;24125;47.482;8.770;2022-12-07T10:31:51;24.90;;;15.43;;
36385;SDS011;24125;47.482;8.770;2022-12-07T10:34:30;25.52;;;15.75;;
36385;SDS011;24125;47.482;8.770;2022-12-07T10:37:15;25.33;;;14.50;;
36385;SDS011;24125;47.482;8.770;2022-12-07T10:39:51;24.77;;;14.82;;
36385;SDS011;24125;47.482;8.770;2022-12-07T10:42:26;22.08;;;13.85;;
36385;SDS011;24125;47.482;8.770;2022-12-07T10:45:13;21.00;;;13.88;;
36385;SDS011;24125;47.482;8.770;2022-12-07T10:47:49;22.42;;;13.35;;
36385;SDS011;24125;47.482;8.770;2022-12-07T10:50:32;23.70;;;13.82;;
36385;SDS011;24125;47.482;8.770;2022-12-07T10:53:47;20.45;;;13.18;;
36385;SDS011;24125;47.482;8.770;2022-12-07T11:02:35;21.50;;;12.50;;
36385;SDS011;24125;47.482;8.770;2022-12-07T11:05:20;20.80;;;12.57;;
36385;SDS011;24125;47.482;8.770;2022-12-07T11:08:03;24.00;;;12.85;;
36385;SDS011;24125;47.482;8.770;2022-12-07T11:10:46;21.10;;;12.10;;
36385;SDS011;24125;47.482;8.770;2022-12-07T11:13:36;24.55;;;13.00;;
36385;SDS011;24125;47.482;8.770;2022-12-07T11:16:22;20.05;;;12.40;;
36385;SDS011;24125;47.482;8.770;2022-12-07T11:19:06;21.83;;;13.38;;
36385;SDS011;24125;47.482;8.770;2022-12-07T11:21:58;21.52;;;13.02;;
36385;SDS011;24125;47.482;8.770;2022-12-07T11:24:40;23.08;;;13.70;;
36385;SDS011;24125;47.482;8.770;2022-12-07T11:27:22;23.10;;;12.27;;
36385;SDS011;24125;47.482;8.770;2022-12-07T11:30:08;20.00;;;12.43;;
36385;SDS011;24125;47.482;8.770;2022-12-07T11:32:49;19.08;;;12.55;;
36385;SDS011;24125;47.482;8.770;2022-12-07T11:35:35;19.65;;;12.27;;
36385;SDS011;24125;47.482;8.770;2022-12-07T11:38:16;21.67;;;12.68;;
36385;SDS011;24125;47.482;8.770;2022-12-07T11:41:00;19.58;;;11.50;;
36385;SDS011;24125;47.482;8.770;2022-12-07T11:43:52;18.50;;;11.48;;
36385;SDS011;24125;47.482;8.770;2022-12-07T11:46:29;15.70;;;10.15;;
36385;SDS011;24125;47.482;8.770;2022-12-07T11:49:19;17.75;;;11.13;;
36385;SDS011;24125;47.482;8.770;2022-12-07T11:51:57;17.42;;;10.93;;
36385;SDS011;24125;47.482;8.770;2022-12-07T11:54:35;18.98;;;11.45;;
36385;SDS011;24125;47.482;8.770;2022-12-07T11:57:17;18.13;;;10.93;;
36385;SDS011;24125;47.482;8.770;2022-12-07T11:59:55;17.17;;;11.05;;
36385;SDS011;24125;47.482;8.770;2022-12-07T12:02:35;16.73;;;10.80;;
36385;SDS011;24125;47.482;8.770;2022-12-07T12:05:16;15.98;;;10.68;;
36385;SDS011;24125;47.482;8.770;2022-12-07T12:07:53;17.48;;;11.63;;
36385;SDS011;24125;47.482;8.770;2022-12-07T12:10:55;17.33;;;11.33;;
36385;SDS011;24125;47.482;8.770;2022-12-07T12:17:17;16.55;;;10.65;;
36385;SDS011;24125;47.482;8.770;2022-12-07T12:20:06;15.98;;;10.18;;
36385;SDS011;24125;47.482;8.770;2022-12-07T12:22:50;17.48;;;10.90;;
36385;SDS011;24125;47.482;8.770;2022-12-07T12:25:29;17.33;;;10.82;;
36385;SDS011;24125;47.482;8.770;2022-12-07T12:28:16;15.10;;;10.05;;
36385;SDS011;24125;47.482;8.770;2022-12-07T12:31:05;16.17;;;10.13;;
36385;SDS011;24125;47.482;8.770;2022-12-07T12:33:43;16.33;;;10.57;;
36385;SDS011;24125;47.482;8.770;2022-12-07T12:36:19;16.55;;;10.32;;
36385;SDS011;24125;47.482;8.770;2022-12-07T12:39:09;16.73;;;10.98;;
36385;SDS011;24125;47.482;8.770;2022-12-07T12:41:55;16.25;;;10.55;;
36385;SDS011;24125;47.482;8.770;2022-12-07T12:44:40;14.52;;;9.68;;
36385;SDS011;24125;47.482;8.770;2022-12-07T12:50:18;14.77;;;8.80;;
36385;SDS011;24125;47.482;8.770;2022-12-07T12:53:02;15.55;;;10.18;;
36385;SDS011;24125;47.482;8.770;2022-12-07T13:02:14;15.07;;;9.18;;
36385;SDS011;24125;47.482;8.770;2022-12-07T13:04:54;14.43;;;9.27;;
36385;SDS011;24125;47.482;8.770;2022-12-07T13:07:49;14.38;;;9.45;;
36385;SDS011;24125;47.482;8.770;2022-12-07T13:13:30;15.53;;;8.87;;
36385;SDS011;24125;47.482;8.770;2022-12-07T13:22:52;14.10;;;8.90;;
36385;SDS011;24125;47.482;8.770;2022-12-07T13:25:31;13.30;;;8.85;;
36385;SDS011;24125;47.482;8.770;2022-12-07T13:28:13;13.85;;;8.60;;
36385;SDS011;24125;47.482;8.770;2022-12-07T13:31:00;14.40;;;9.23;;
36385;SDS011;24125;47.482;8.770;2022-12-07T13:33:47;12.05;;;8.35;;
36385;SDS011;24125;47.482;8.770;2022-12-07T13:36:23;13.10;;;8.27;;
36385;SDS011;24125;47.482;8.770;2022-12-07T13:39:00;18.77;;;9.95;;
36385;SDS011;24125;47.482;8.770;2022-12-07T13:41:43;14.80;;;9.38;;
36385;SDS011;24125;47.482;8.770;2022-12-07T13:44:17;13.85;;;8.88;;
36385;SDS011;24125;47.482;8.770;2022-12-07T13:46:57;15.48;;;9.57;;
36385;SDS011;24125;47.482;8.770;2022-12-07T13:49:38;14.10;;;8.85;;
36385;SDS011;24125;47.482;8.770;2022-12-07T13:52:24;14.02;;;9.13;;
36385;SDS011;24125;47.482;8.770;2022-12-07T13:55:00;14.35;;;8.75;;
36385;SDS011;24125;47.482;8.770;2022-12-07T13:57:47;14.35;;;9.18;;
36385;SDS011;24125;47.482;8.770;2022-12-07T14:00:23;15.43;;;9.35;;
36385;SDS011;24125;47.482;8.770;2022-12-07T14:02:59;13.80;;;8.77;;
36385;SDS011;24125;47.482;8.770;2022-12-07T14:05:34;13.07;;;8.63;;
36385;SDS011;24125;47.482;8.770;2022-12-07T14:08:21;13.23;;;8.50;;
36385;SDS011;24125;47.482;8.770;2022-12-07T14:10:57;12.40;;;7.90;;
36385;SDS011;24125;47.482;8.770;2022-12-07T14:13:32;12.00;;;7.75;;
36385;SDS011;24125;47.482;8.770;2022-12-07T14:16:18;10.73;;;7.03;;
36385;SDS011;24125;47.482;8.770;2022-12-07T14:18:57;10.85;;;6.60;;
36385;SDS011;24125;47.482;8.770;2022-12-07T14:21:32;13.40;;;7.57;;
36385;SDS011;24125;47.482;8.770;2022-12-07T14:24:11;11.93;;;7.43;;
36385;SDS011;24125;47.482;8.770;2022-12-07T14:26:50;10.63;;;7.03;;
36385;SDS011;24125;47.482;8.770;2022-12-07T14:29:30;12.45;;;7.85;;
36385;SDS011;24125;47.482;8.770;2022-12-07T14:32:18;9.10;;;6.45;;
36385;SDS011;24125;47.482;8.770;2022-12-07T14:34:54;11.88;;;6.75;;
36385;SDS011;24125;47.482;8.770;2022-12-07T14:37:29;11.65;;;7.63;;
36385;SDS011;24125;47.482;8.770;2022-12-07T14:40:02;11.40;;;7.43;;
36385;SDS011;24125;47.482;8.770;2022-12-07T14:42:38;12.63;;;7.63;;
36385;SDS011;24125;47.482;8.770;2022-12-07T14:45:16;13.15;;;7.57;;
36385;SDS011;24125;47.482;8.770;2022-12-07T14:47:50;12.88;;;7.75;;
36385;SDS011;24125;47.482;8.770;2022-12-07T14:50:44;11.88;;;6.95;;
36385;SDS011;24125;47.482;8.770;2022-12-07T14:53:42;12.20;;;7.10;;
36385;SDS011;24125;47.482;8.770;2022-12-07T14:56:27;10.85;;;7.15;;
36385;SDS011;24125;47.482;8.770;2022-12-07T14:59:02;12.82;;;7.40;;
36385;SDS011;24125;47.482;8.770;2022-12-07T15:01:35;12.95;;;7.45;;
36385;SDS011;24125;47.482;8.770;2022-12-07T15:04:08;15.75;;;8.35;;
36385;SDS011;24125;47.482;8.770;2022-12-07T15:06:41;12.73;;;8.32;;
36385;SDS011;24125;47.482;8.770;2022-12-07T15:09:15;11.20;;;7.32;;
36385;SDS011;24125;47.482;8.770;2022-12-07T15:11:48;10.65;;;7.38;;
36385;SDS011;24125;47.482;8.770;2022-12-07T15:14:22;13.75;;;8.27;;
36385;SDS011;24125;47.482;8.770;2022-12-07T15:16:55;11.18;;;6.88;;
36385;SDS011;24125;47.482;8.770;2022-12-07T15:19:48;12.07;;;7.22;;
36385;SDS011;24125;47.482;8.770;2022-12-07T15:22:21;11.32;;;7.50;;
36385;SDS011;24125;47.482;8.770;2022-12-07T15:24:54;12.68;;;8.27;;
36385;SDS011;24125;47.482;8.770;2022-12-07T15:27:28;12.85;;;7.60;;
36385;SDS011;24125;47.482;8.770;2022-12-07T15:30:05;13.20;;;7.95;;
36385;SDS011;24125;47.482;8.770;2022-12-07T15:32:38;12.27;;;7.53;;
36385;SDS011;24125;47.482;8.770;2022-12-07T15:35:11;11.32;;;7.82;;
36385;SDS011;24125;47.482;8.770;2022-12-07T15:37:44;11.93;;;8.10;;
36385;SDS011;24125;47.482;8.770;2022-12-07T15:40:17;14.65;;;8.45;;
36385;SDS011;24125;47.482;8.770;2022-12-07T15:42:50;11.38;;;7.55;;
36385;SDS011;24125;47.482;8.770;2022-12-07T15:45:25;12.25;;;7.53;;
36385;SDS011;24125;47.482;8.770;2022-12-07T15:47:56;13.63;;;8.18;;
36385;SDS011;24125;47.482;8.770;2022-12-07T15:50:50;12.55;;;8.63;;
36385;SDS011;24125;47.482;8.770;2022-12-07T15:53:23;15.55;;;8.27;;